Time;durP1;ratioP1;P1;durP2;ratioP2;P2;SDS_P1;SDS_P2;PMS_P1;PMS_P2;Temp;Humidity;BMP_temperature;BMP_pressure;BME280_temperature;BME280_humidity;BME280_pressure;Samples;Min_cycle;Max_cycle;Signal;HPM_P1;HPM_P2
2023/03/01 00:01:29;;;;;;;251.43;18.38;;;;;;;;;;5054487;28;20052;-51
2023/03/01 00:03:56;;;;;;;191.02;16.85;;;;;;;;;;5054658;28;20052;-50
2023/03/01 00:06:22;;;;;;;57.13;13.38;;;;;;;;;;5055432;28;20092;-48
2023/03/01 00:08:49;;;;;;;23.52;10.43;;;;;;;;;;5055675;28;20036;-48
2023/03/01 00:11:16;;;;;;;54.25;13.80;;;;;;;;;;5055477;28;20047;-47
2023/03/01 00:13:44;;;;;;;20.33;10.60;;;-2.10;99.90;;;;;;5054071;28;20512;-49
2023/03/01 00:16:11;;;;;;;98.20;15.25;;;;;;;;;;5056046;28;20185;-48
2023/03/01 00:18:37;;;;;;;226.38;20.45;;;;;;;;;;5053926;28;20071;-49
2023/03/01 00:21:04;;;;;;;185.27;18.65;;;;;;;;;;5054914;28;20036;-51
2023/03/01 00:23:30;;;;;;;196.95;19.67;;;;;;;;;;5054574;28;20040;-48
2023/03/01 00:25:56;;;;;;;128.50;19.25;;;;;;;;;;5055856;28;20048;-51
2023/03/01 00:28:22;;;;;;;25.88;14.55;;;;;;;;;;5054697;28;20463;-50
2023/03/01 00:30:48;;;;;;;125.95;17.98;;;;;;;;;;5054831;28;20032;-50
2023/03/01 00:33:14;;;;;;;328.02;22.75;;;;;;;;;;5054708;28;20048;-49
2023/03/01 00:35:40;;;;;;;86.43;17.60;;;;;;;;;;5055040;28;20136;-47
2023/03/01 00:38:07;;;;;;;111.65;18.10;;;;;;;;;;5055956;28;20044;-49
2023/03/01 00:40:34;;;;;;;168.27;18.42;;;;;;;;;;5054525;28;20125;-50
2023/03/01 00:43:00;;;;;;;248.20;21.20;;;;;;;;;;5055099;28;20412;-49
2023/03/01 00:45:26;;;;;;;203.82;19.40;;;;;;;;;;5054297;28;20249;-50
2023/03/01 00:47:52;;;;;;;256.58;21.00;;;;;;;;;;5055576;28;20834;-49
2023/03/01 00:50:19;;;;;;;193.40;19.42;;;;;;;;;;5055874;28;20044;-50
2023/03/01 00:52:45;;;;;;;428.27;26.80;;;;;;;;;;5053299;28;20110;-48
2023/03/01 00:55:12;;;;;;;246.25;21.80;;;;;;;;;;5055379;28;20068;-47
2023/03/01 00:57:38;;;;;;;321.15;23.58;;;;;;;;;;5054899;28;20047;-52
2023/03/01 01:00:09;;;;;;;336.27;23.08;;;;;;;;;;5054287;28;20090;-49
2023/03/01 01:02:35;;;;;;;207.73;19.50;;;;;;;;;;5055454;28;20048;-50
2023/03/01 01:05:01;;;;;;;163.45;17.77;;;;;;;;;;5055192;28;20405;-48
2023/03/01 01:07:27;;;;;;;139.55;16.50;;;;;;;;;;5054258;28;20136;-48
2023/03/01 01:09:53;;;;;;;105.10;15.38;;;;;;;;;;5053442;28;20044;-50
2023/03/01 01:12:20;;;;;;;121.03;14.48;;;;;;;;;;5054957;28;20491;-51
2023/03/01 01:14:46;;;;;;;90.22;14.20;;;;;;;;;;5054716;28;20078;-50
2023/03/01 01:17:12;;;;;;;90.50;15.20;;;;;;;;;;5055891;28;20358;-48
2023/03/01 01:19:38;;;;;;;110.05;14.90;;;;;;;;;;5053781;28;20037;-49
2023/03/01 01:22:04;;;;;;;173.88;16.38;;;;;;;;;;5054501;28;20493;-49
2023/03/01 01:24:30;;;;;;;172.73;17.35;;;;;;;;;;5054934;28;20040;-49
2023/03/01 01:26:56;;;;;;;148.85;15.13;;;;;;;;;;5053485;28;20078;-47
2023/03/01 01:29:23;;;;;;;112.85;14.45;;;;;;;;;;5054481;28;20363;-48
2023/03/01 01:31:49;;;;;;;79.18;14.07;;;;;;;;;;5053647;28;20109;-50
2023/03/01 01:34:16;;;;;;;92.53;14.32;;;;;;;;;;5053137;28;20056;-51
2023/03/01 01:36:43;;;;;;;77.53;11.30;;;;;;;;;;5053096;28;20132;-52
2023/03/01 01:39:12;;;;;;;152.18;13.57;;;;;;;;;;5051847;28;20044;-48
2023/03/01 01:41:39;;;;;;;80.45;12.05;;;;;;;;;;5052762;28;20113;-51
2023/03/01 01:44:13;;;;;;;130.13;13.80;;;;;;;;;;5053584;28;20036;-48
2023/03/01 01:46:42;;;;;;;165.40;14.98;;;;;;;;;;5054178;28;20515;-47
2023/03/01 01:49:12;;;;;;;81.15;13.43;;;;;;;;;;5052812;28;20056;-52
2023/03/01 01:51:40;;;;;;;106.90;11.65;;;;;;;;;;5054347;28;20409;-49
2023/03/01 01:54:19;;;;;;;96.30;12.77;;;-3.20;99.90;;;;;;5053826;28;20159;-49
2023/03/01 01:56:48;;;;;;;108.97;12.57;;;;;;;;;;5054591;28;20048;-51
2023/03/01 01:59:15;;;;;;;71.32;11.68;;;;;;;;;;5052894;28;20033;-49
2023/03/01 02:01:41;;;;;;;39.08;12.35;;;;;;;;;;5053339;28;20051;-51
2023/03/01 02:04:07;;;;;;;16.35;10.90;;;;;;;;;;5052896;28;20040;-47
2023/03/01 02:06:36;;;;;;;76.68;12.27;;;;;;;;;;5054905;28;20068;-51
2023/03/01 02:09:05;;;;;;;87.22;13.35;;;;;;;;;;5053448;28;20040;-51
2023/03/01 02:11:32;;;;;;;102.95;14.02;;;;;;;;;;5054381;28;20535;-50
2023/03/01 02:13:58;;;;;;;169.85;14.45;;;;;;;;;;5053579;28;20041;-49
2023/03/01 02:16:26;;;;;;;156.65;15.32;;;;;;;;;;5054345;28;20474;-50
2023/03/01 02:18:53;;;;;;;128.55;14.55;;;;;;;;;;5052388;28;20811;-51
2023/03/01 02:21:25;;;;;;;225.00;17.17;;;;;;;;;;5053974;28;20491;-49
2023/03/01 02:23:51;;;;;;;63.30;10.98;;;;;;;;;;5052310;28;20283;-49
2023/03/01 02:26:44;;;;;;;141.60;14.65;;;;;;;;;;5053118;28;20041;-47
2023/03/01 02:29:10;;;;;;;218.40;15.50;;;;;;;;;;5050384;28;20542;-49
2023/03/01 02:31:42;;;;;;;190.70;14.82;;;;;;;;;;5053452;28;20045;-49
2023/03/01 02:34:29;;;;;;;120.80;11.48;;;;;;;;;;5052805;28;20505;-48
2023/03/01 02:37:00;;;;;;;209.32;14.85;;;;;;;;;;5053799;28;20051;-46
2023/03/01 02:39:29;;;;;;;168.20;16.52;;;;;;;;;;5053361;28;20723;-46
2023/03/01 02:41:57;;;;;;;154.55;14.75;;;;;;;;;;5052800;28;20056;-48
2023/03/01 02:44:23;;;;;;;222.02;15.23;;;;;;;;;;5056604;28;20048;-49
2023/03/01 02:46:51;;;;;;;217.15;14.60;;;;;;;;;;5061568;28;20040;-47
2023/03/01 02:49:23;;;;;;;244.85;15.52;;;;;;;;;;5058572;28;20052;-47
2023/03/01 02:51:55;;;;;;;171.55;14.80;;;;;;;;;;5059297;28;20058;-50
2023/03/01 02:54:21;;;;;;;160.55;12.77;;;;;;;;;;5059355;28;20151;-47
2023/03/01 02:56:48;;;;;;;135.90;12.32;;;;;;;;;;5059658;28;20090;-46
2023/03/01 02:59:15;;;;;;;146.45;12.80;;;;;;;;;;5058672;28;20549;-48
2023/03/01 03:01:41;;;;;;;135.82;13.07;;;;;;;;;;5058704;28;20102;-50
2023/03/01 03:04:10;;;;;;;216.15;16.88;;;;;;;;;;5059897;28;20106;-49
2023/03/01 03:06:36;;;;;;;204.10;15.20;;;;;;;;;;5060181;28;20099;-47
2023/03/01 03:09:04;;;;;;;213.63;17.75;;;;;;;;;;5059201;28;20055;-51
2023/03/01 03:11:30;;;;;;;202.68;19.33;;;;;;;;;;5059672;28;20040;-48
2023/03/01 03:13:57;;;;;;;110.03;15.60;;;;;;;;;;5058896;28;20044;-48
2023/03/01 03:16:24;;;;;;;86.93;13.75;;;;;;;;;;5061081;28;20454;-50
2023/03/01 03:18:50;;;;;;;291.52;20.50;;;;;;;;;;5058845;28;20121;-48
2023/03/01 03:21:17;;;;;;;217.07;20.25;;;;;;;;;;5060014;28;20028;-51
2023/03/01 03:23:43;;;;;;;179.98;18.70;;;;;;;;;;5059162;28;20127;-48
2023/03/01 03:26:13;;;;;;;294.58;19.98;;;;;;;;;;5058585;28;20382;-47
2023/03/01 03:28:39;;;;;;;261.25;17.17;;;;;;;;;;5059087;28;20135;-47
2023/03/01 03:31:06;;;;;;;346.85;19.65;;;;;;;;;;5059144;28;20135;-50
2023/03/01 03:33:32;;;;;;;305.98;20.80;;;;;;;;;;5060224;28;20037;-47
2023/03/01 03:35:59;;;;;;;318.25;17.15;;;;;;;;;;5058793;28;20040;-48
2023/03/01 03:38:25;;;;;;;231.88;18.33;;;;;;;;;;5059865;28;20076;-47
2023/03/01 03:40:52;;;;;;;256.85;17.15;;;;;;;;;;5058299;28;20481;-50
2023/03/01 03:43:20;;;;;;;272.05;18.92;;;;;;;;;;5058167;28;20110;-50
2023/03/01 03:45:47;;;;;;;271.90;19.92;;;;;;;;;;5057942;28;20055;-48
2023/03/01 03:48:13;;;;;;;247.68;17.92;;;;;;;;;;5059712;28;20048;-48
2023/03/01 03:50:39;;;;;;;128.80;15.05;;;;;;;;;;5059186;28;20075;-49
2023/03/01 03:53:07;;;;;;;125.85;13.75;;;;;;;;;;5058117;28;20459;-51
2023/03/01 03:55:33;;;;;;;94.35;15.50;;;;;;;;;;5056639;28;20063;-50
2023/03/01 03:58:06;;;;;;;217.27;19.15;;;;;;;;;;5055041;28;20051;-49
2023/03/01 04:00:32;;;;;;;196.65;16.35;;;;;;;;;;5054282;28;20044;-49
2023/03/01 04:02:58;;;;;;;143.20;14.40;;;;;;;;;;5054110;28;20131;-48
2023/03/01 04:05:25;;;;;;;183.60;15.90;;;;;;;;;;5055308;28;20040;-47
2023/03/01 04:08:00;;;;;;;258.65;21.38;;;;;;;;;;5053592;28;20687;-50
2023/03/01 04:10:27;;;;;;;210.65;18.27;;;;;;;;;;5054883;28;20098;-47
2023/03/01 04:12:55;;;;;;;233.38;17.83;;;;;;;;;;5055452;28;20055;-51
2023/03/01 04:15:23;;;;;;;147.85;15.05;;;;;;;;;;5055586;28;20075;-49
2023/03/01 04:17:50;;;;;;;267.08;19.55;;;;;;;;;;5055055;28;20101;-52
2023/03/01 04:20:17;;;;;;;204.60;16.25;;;;;;;;;;5054945;28;20342;-47
2023/03/01 04:22:47;;;;;;;255.85;17.33;;;;;;;;;;5053978;28;20043;-50
2023/03/01 04:25:14;;;;;;;286.92;20.30;;;;;;;;;;5054198;28;20089;-49
2023/03/01 04:27:40;;;;;;;102.63;11.02;;;;;;;;;;5055488;28;20044;-50
2023/03/01 04:30:07;;;;;;;167.05;14.35;;;;;;;;;;5055041;28;20396;-48
2023/03/01 04:32:33;;;;;;;186.27;16.13;;;;;;;;;;5054435;28;20062;-46
2023/03/01 04:35:00;;;;;;;214.32;17.40;;;;;;;;;;5052886;28;20059;-46
2023/03/01 04:37:26;;;;;;;145.82;12.90;;;;;;;;;;5055031;28;20048;-50
2023/03/01 04:39:52;;;;;;;133.68;13.05;;;;;;;;;;5055227;28;20060;-50
2023/03/01 04:42:19;;;;;;;237.20;17.88;;;;;;;;;;5055379;28;20076;-49
2023/03/01 04:44:45;;;;;;;226.35;18.13;;;;;;;;;;5055767;28;20052;-51
2023/03/01 04:47:12;;;;;;;259.52;18.77;;;;;;;;;;5056033;28;20047;-50
2023/03/01 04:49:38;;;;;;;220.95;17.13;;;;;;;;;;5053997;28;20049;-46
2023/03/01 04:52:05;;;;;;;191.55;18.60;;;;;;;;;;5055443;28;20543;-50
2023/03/01 04:54:32;;;;;;;98.40;15.35;;;;;;;;;;5054539;28;21045;-49
2023/03/01 04:56:58;;;;;;;84.60;17.27;;;;;;;;;;5054953;28;20037;-51
2023/03/01 04:59:25;;;;;;;117.28;15.20;;;;;;;;;;5055874;28;20040;-47
2023/03/01 05:01:51;;;;;;;60.25;15.18;;;;;;;;;;5053337;28;20465;-47
2023/03/01 05:04:18;;;;;;;163.10;17.23;;;;;;;;;;5053264;28;20279;-50
2023/03/01 05:06:44;;;;;;;44.90;13.43;;;;;;;;;;5054068;28;20506;-46
2023/03/01 05:09:11;;;;;;;30.00;12.85;;;;;;;;;;5052548;28;20037;-46
2023/03/01 05:11:37;;;;;;;65.90;14.05;;;;;;;;;;5054393;28;20040;-48
2023/03/01 05:14:04;;;;;;;139.95;14.65;;;;;;;;;;5055179;28;20377;-51
2023/03/01 05:16:30;;;;;;;79.75;14.23;;;;;;;;;;5054091;28;20052;-47
2023/03/01 05:18:57;;;;;;;140.05;17.25;;;;;;;;;;5054378;28;20048;-50
2023/03/01 05:21:23;;;;;;;125.80;16.23;;;;;;;;;;5054539;28;20115;-48
2023/03/01 05:23:49;;;;;;;126.18;15.48;;;;;;;;;;5054514;28;20104;-47
2023/03/01 05:26:17;;;;;;;73.72;13.35;;;;;;;;;;5053766;28;20040;-47
2023/03/01 05:28:43;;;;;;;64.13;12.65;;;;;;;;;;5054681;28;20201;-48
2023/03/01 05:31:10;;;;;;;99.25;15.32;;;;;;;;;;5054782;28;20139;-47
2023/03/01 05:33:40;;;;;;;48.40;13.10;;;;;;;;;;5053213;28;20045;-49
2023/03/01 05:36:07;;;;;;;28.77;12.05;;;;;;;;;;5052483;28;20187;-48
2023/03/01 05:38:33;;;;;;;48.88;13.27;;;;;;;;;;5053443;28;20055;-52
2023/03/01 05:40:59;;;;;;;127.75;15.35;;;;;;;;;;5053564;28;20059;-47
2023/03/01 05:43:25;;;;;;;43.95;11.68;;;;;;;;;;5053802;28;20037;-47
2023/03/01 05:45:52;;;;;;;34.65;11.73;;;;;;;;;;5054273;28;20140;-51
2023/03/01 05:48:19;;;;;;;55.33;12.15;;;;;;;;;;5054680;28;20056;-52
2023/03/01 05:50:47;;;;;;;45.70;13.85;;;;;;;;;;5051931;28;20057;-50
2023/03/01 05:53:18;;;;;;;77.25;13.43;;;;;;;;;;5053362;28;20647;-49
2023/03/01 05:55:47;;;;;;;20.92;12.25;;;;;;;;;;5054620;28;20064;-51
2023/03/01 05:58:14;;;;;;;26.52;12.55;;;;;;;;;;5053388;28;20036;-48
2023/03/01 06:00:40;;;;;;;20.67;12.07;;;;;;;;;;5054250;28;20042;-50
2023/03/01 06:03:06;;;;;;;18.25;12.75;;;;;;;;;;5052625;28;20055;-50
2023/03/01 06:05:33;;;;;;;19.58;12.77;;;;;;;;;;5054088;28;20467;-52
2023/03/01 06:07:59;;;;;;;17.63;10.70;;;;;;;;;;5053969;28;20321;-49
2023/03/01 06:10:25;;;;;;;21.55;11.82;;;;;;;;;;5054285;28;20040;-50
2023/03/01 06:12:52;;;;;;;21.33;11.82;;;;;;;;;;5054183;28;20047;-47
2023/03/01 06:15:18;;;;;;;15.68;10.77;;;;;;;;;;5054471;28;20040;-51
2023/03/01 06:17:45;;;;;;;19.88;11.45;;;;;;;;;;5054140;28;20575;-48
2023/03/01 06:20:12;;;;;;;18.73;11.00;;;;;;;;;;5052140;28;20052;-49
2023/03/01 06:22:38;;;;;;;18.60;10.90;;;;;;;;;;5054559;28;20052;-49
2023/03/01 06:25:04;;;;;;;16.30;11.13;;;;;;;;;;5052630;28;20143;-46
2023/03/01 06:27:30;;;;;;;17.48;10.43;;;;;;;;;;5053291;28;20048;-50
2023/03/01 06:29:56;;;;;;;20.10;11.18;;;;;;;;;;5052295;28;20089;-49
2023/03/01 06:32:23;;;;;;;16.98;11.30;;;;;;;;;;5051811;28;20228;-50
2023/03/01 06:34:49;;;;;;;17.85;10.68;;;;;;;;;;5052110;28;20131;-50
2023/03/01 06:37:15;;;;;;;18.70;11.18;;;;;;;;;;5052626;28;20041;-46
2023/03/01 06:39:41;;;;;;;18.50;10.63;;;;;;;;;;5052543;28;20586;-50
2023/03/01 06:42:09;;;;;;;17.58;10.75;;;;;;;;;;5053104;28;20048;-47
2023/03/01 06:44:36;;;;;;;19.23;11.48;;;;;;;;;;5052087;28;20041;-49
2023/03/01 06:47:03;;;;;;;21.00;10.90;;;;;;;;;;5052709;28;20044;-47
2023/03/01 06:49:29;;;;;;;22.02;14.40;;;;;;;;;;5052568;28;20131;-50
2023/03/01 06:51:56;;;;;;;23.42;13.70;;;;;;;;;;5051566;28;20580;-50
2023/03/01 06:54:22;;;;;;;24.33;15.13;;;;;;;;;;5052122;28;20113;-49
2023/03/01 06:56:48;;;;;;;23.05;13.50;;;;;;;;;;5051814;28;20040;-48
2023/03/01 06:59:15;;;;;;;21.77;13.13;;;;;;;;;;5051995;28;20114;-50
2023/03/01 07:01:41;;;;;;;22.08;13.48;;;;;;;;;;5051736;28;20098;-46
2023/03/01 07:04:07;;;;;;;21.83;12.73;;;;;;;;;;5052331;28;20064;-51
2023/03/01 07:06:33;;;;;;;21.25;13.50;;;;;;;;;;5052530;28;20044;-50
2023/03/01 07:08:59;;;;;;;19.75;12.30;;;;;;;;;;5053565;28;20397;-47
2023/03/01 07:11:26;;;;;;;18.08;12.40;;;;;;;;;;5052259;28;20040;-50
2023/03/01 07:13:52;;;;;;;19.60;13.02;;;;;;;;;;5053367;28;20040;-46
2023/03/01 07:16:20;;;;;;;20.70;13.48;;;;;;;;;;5053387;28;20044;-47
2023/03/01 07:18:46;;;;;;;21.17;13.20;;;;;;;;;;5054731;28;20044;-48
2023/03/01 07:21:13;;;;;;;21.17;14.57;;;;;;;;;;5053386;28;20753;-51
2023/03/01 07:23:39;;;;;;;26.20;16.45;;;;;;;;;;5053427;28;20075;-51
2023/03/01 07:26:05;;;;;;;25.38;15.80;;;;;;;;;;5052831;28;20036;-51
2023/03/01 07:28:35;;;;;;;23.38;15.90;;;;;;;;;;5052966;28;20405;-49
2023/03/01 07:31:05;;;;;;;25.50;16.25;;;-1.10;99.90;;;;;;5053607;28;20041;-48
2023/03/01 07:33:32;;;;;;;24.55;16.48;;;;;;;;;;5056808;28;20056;-48
2023/03/01 07:36:04;;;;;;;22.83;14.88;;;-1.00;99.90;;;;;;5057012;28;20119;-47
2023/03/01 07:38:31;;;;;;;23.83;16.33;;;;;;;;;;5056801;28;20052;-48
2023/03/01 07:41:01;;;;;;;28.08;17.63;;;0.20;99.90;;;;;;5056488;28;20417;-47
2023/03/01 07:43:31;;;;;;;22.20;14.70;;;0.90;99.90;;;;;;5055815;28;20051;-48
2023/03/01 07:46:00;;;;;;;22.88;15.10;;;1.40;99.90;;;;;;5055785;28;20308;-50
2023/03/01 07:48:27;;;;;;;17.77;12.73;;;;;;;;;;5056286;28;20040;-46
2023/03/01 07:50:53;;;;;;;17.88;13.07;;;;;;;;;;5055558;28;21000;-50
2023/03/01 07:53:19;;;;;;;18.38;12.65;;;;;;;;;;5055852;28;20051;-47
2023/03/01 07:55:45;;;;;;;20.33;13.35;;;;;;;;;;5055976;28;20720;-50
2023/03/01 07:58:11;;;;;;;19.42;14.45;;;;;;;;;;5056004;28;20060;-46
2023/03/01 08:00:38;;;;;;;20.85;14.77;;;2.80;99.90;;;;;;5055020;28;20040;-55
2023/03/01 08:03:04;;;;;;;19.48;14.20;;;;;;;;;;5053982;28;20159;-48
2023/03/01 08:05:30;;;;;;;20.83;15.57;;;;;;;;;;5055862;28;20041;-45
2023/03/01 08:07:56;;;;;;;21.50;14.80;;;;;;;;;;5054668;28;23490;-49
2023/03/01 08:10:22;;;;;;;22.13;15.90;;;;;;;;;;5056207;28;20438;-50
2023/03/01 08:12:48;;;;;;;23.33;15.88;;;;;;;;;;5054849;28;20186;-49
2023/03/01 08:15:14;;;;;;;25.92;16.33;;;;;;;;;;5055670;28;20135;-49
2023/03/01 08:17:41;;;;;;;26.70;15.38;;;;;;;;;;5057141;28;20044;-48
2023/03/01 08:20:07;;;;;;;30.63;17.20;;;;;;;;;;5056653;28;20123;-50
2023/03/01 08:22:33;;;;;;;26.52;15.45;;;;;;;;;;5055887;28;20041;-50
2023/03/01 08:24:59;;;;;;;23.85;15.07;;;;;;;;;;5055047;28;20185;-48
2023/03/01 08:27:25;;;;;;;23.63;15.95;;;;;;;;;;5056078;28;20071;-51
2023/03/01 08:29:51;;;;;;;22.30;14.98;;;;;;;;;;5056115;28;20086;-51
2023/03/01 08:32:17;;;;;;;28.02;16.48;;;;;;;;;;5057242;28;20064;-53
2023/03/01 08:34:46;;;;;;;27.85;16.25;;;3.40;99.90;;;;;;5055242;28;20060;-52
2023/03/01 08:37:12;;;;;;;21.63;15.35;;;;;;;;;;5054885;28;20064;-50
2023/03/01 08:39:38;;;;;;;23.33;15.43;;;;;;;;;;5055008;28;20059;-49
2023/03/01 08:42:04;;;;;;;21.23;14.93;;;4.00;99.90;;;;;;5056407;28;20774;-49
2023/03/01 08:44:30;;;;;;;23.55;15.32;;;3.80;99.90;;;;;;5056600;28;20119;-51
2023/03/01 08:46:57;;;;;;;25.23;17.25;;;;;;;;;;5055438;28;20037;-50
2023/03/01 08:49:24;;;;;;;24.35;16.98;;;;;;;;;;5056082;28;20056;-53
2023/03/01 08:51:50;;;;;;;26.60;17.20;;;;;;;;;;5056567;28;20252;-48
2023/03/01 08:54:19;;;;;;;22.67;17.27;;;3.50;99.90;;;;;;5054954;28;20455;-49
2023/03/01 08:56:45;;;;;;;27.75;18.77;;;;;;;;;;5055283;28;20092;-50
2023/03/01 08:59:12;;;;;;;25.48;18.08;;;4.90;99.90;;;;;;5056039;28;20040;-48
2023/03/01 09:01:39;;;;;;;26.48;18.25;;;;;;;;;;5055218;28;20043;-52
2023/03/01 09:04:06;;;;;;;23.40;18.77;;;6.60;99.90;;;;;;5054411;28;20509;-49
2023/03/01 09:06:33;;;;;;;23.05;17.92;;;7.40;99.90;;;;;;5053116;28;20044;-52
2023/03/01 09:08:59;;;;;;;23.30;18.33;;;7.60;99.90;;;;;;5054329;28;20658;-52
2023/03/01 09:11:25;;;;;;;21.52;16.65;;;7.80;99.90;;;;;;5054904;28;20445;-52
2023/03/01 09:13:51;;;;;;;24.08;18.17;;;7.60;99.90;;;;;;5054774;28;20075;-50
2023/03/01 09:16:20;;;;;;;22.25;17.83;;;7.70;99.90;;;;;;5055639;28;20688;-54
2023/03/01 09:18:51;;;;;;;21.80;17.40;;;8.20;99.90;;;;;;5056355;28;20081;-50
2023/03/01 09:21:17;;;;;;;22.95;18.80;;;8.20;99.90;;;;;;5053076;28;20055;-52
2023/03/01 09:23:46;;;;;;;23.25;18.67;;;8.40;99.90;;;;;;5054972;28;20072;-53
2023/03/01 09:26:18;;;;;;;23.80;18.50;;;8.40;99.90;;;;;;5054111;28;20508;-53
2023/03/01 09:28:48;;;;;;;26.73;19.42;;;8.20;99.90;;;;;;5054600;28;20040;-52
2023/03/01 09:31:15;;;;;;;24.50;20.20;;;7.80;99.90;;;;;;5053618;28;20048;-51
2023/03/01 09:33:42;;;;;;;23.33;19.85;;;8.40;99.90;;;;;;5053769;28;20135;-53
2023/03/01 09:36:12;;;;;;;26.58;19.33;;;7.30;99.90;;;;;;5053776;28;20036;-52
2023/03/01 09:38:38;;;;;;;21.45;17.38;;;7.30;99.90;;;;;;5053957;28;20036;-53
2023/03/01 09:41:29;;;;;;;24.95;18.58;;;7.00;99.90;;;;;;5054306;28;20044;-50
2023/03/01 09:44:04;;;;;;;23.05;19.23;;;7.10;99.90;;;;;;5053823;28;21572;-51
2023/03/01 09:46:43;;;;;;;19.83;15.38;;;8.20;99.90;;;;;;5054072;28;20524;-51
2023/03/01 09:49:30;;;;;;;21.90;17.13;;;7.40;99.90;;;;;;5054841;28;20048;-49
2023/03/01 09:52:19;;;;;;;19.90;16.55;;;7.20;99.90;;;;;;5054764;28;20044;-54
2023/03/01 09:54:45;;;;;;;22.15;17.05;;;7.40;99.90;;;;;;5053946;28;20848;-53
2023/03/01 09:57:29;;;;;;;18.65;15.93;;;8.00;99.90;;;;;;5053952;28;20063;-54
2023/03/01 10:00:01;;;;;;;19.70;14.68;;;7.60;99.90;;;;;;5052583;28;20052;-53
2023/03/01 10:02:44;;;;;;;16.20;11.88;;;7.50;99.90;;;;;;5053738;28;20041;-53
2023/03/01 10:05:38;;;;;;;18.23;13.85;;;7.40;99.90;;;;;;5053691;28;20070;-55
2023/03/01 10:08:38;;;;;;;18.15;14.30;;;7.30;99.90;;;;;;5053801;28;20513;-53
2023/03/01 10:11:14;;;;;;;18.05;12.30;;;7.50;99.90;;;;;;5054455;28;20072;-54
2023/03/01 10:13:52;;;;;;;20.48;12.52;;;7.10;99.90;;;;;;5054168;28;20032;-52
2023/03/01 10:16:43;;;;;;;20.75;12.65;;;7.30;99.90;;;;;;5053034;28;20524;-54
2023/03/01 10:19:16;;;;;;;15.98;10.90;;;7.10;99.90;;;;;;5053376;28;20505;-54
2023/03/01 10:21:45;;;;;;;14.82;10.88;;;7.20;99.90;;;;;;5053698;28;20119;-54
2023/03/01 10:24:14;;;;;;;17.48;10.52;;;7.20;99.90;;;;;;5053224;28;20028;-54
2023/03/01 10:26:40;;;;;;;15.25;11.38;;;;;;;;;;5053433;28;20465;-55
2023/03/01 10:29:08;;;;;;;14.90;9.88;;;7.10;99.90;;;;;;5053598;28;20074;-53
2023/03/01 10:31:48;;;;;;;17.98;11.00;;;7.20;99.90;;;;;;5053825;28;20409;-52
2023/03/01 10:34:18;;;;;;;15.88;10.98;;;7.10;99.90;;;;;;5052992;28;20059;-55
2023/03/01 10:36:47;;;;;;;17.10;10.30;;;7.20;99.90;;;;;;5053408;28;20044;-53
2023/03/01 10:39:23;;;;;;;16.92;11.27;;;7.00;99.90;;;;;;5052933;28;20060;-53
2023/03/01 10:41:58;;;;;;;15.18;12.18;;;7.00;99.90;;;;;;5067414;28;20048;-55
2023/03/01 10:44:45;;;;;;;18.58;12.77;;;7.30;99.90;;;;;;5054370;28;20102;-55
2023/03/01 10:47:33;;;;;;;18.70;12.60;;;7.30;99.90;;;;;;5053364;28;20044;-51
2023/03/01 10:50:05;;;;;;;18.73;13.32;;;7.40;99.90;;;;;;5054253;28;20494;-54
2023/03/01 10:52:37;;;;;;;19.45;14.07;;;7.50;99.90;;;;;;5053365;28;20044;-54
2023/03/01 10:55:18;;;;;;;18.98;13.35;;;7.40;99.90;;;;;;5052735;28;20154;-54
2023/03/01 10:57:44;;;;;;;18.33;13.30;;;;;;;;;;5052672;28;20049;-55
2023/03/01 11:00:26;;;;;;;22.00;14.20;;;7.60;99.90;;;;;;5052039;28;20953;-54
2023/03/01 11:03:13;;;;;;;20.98;13.82;;;7.50;99.90;;;;;;5050688;28;20068;-54
2023/03/01 11:05:57;;;;;;;18.08;13.60;;;7.70;99.90;;;;;;5054303;28;20033;-54
2023/03/01 11:08:31;;;;;;;15.80;11.65;;;7.70;99.90;;;;;;5057360;28;20056;-53
2023/03/01 11:11:14;;;;;;;14.73;10.88;;;7.80;99.90;;;;;;5057769;28;20136;-55
2023/03/01 11:13:53;;;;;;;;;;;7.80;99.90;;;;;;5057265;28;20468;-53
2023/03/01 11:16:25;;;;;;;18.10;11.20;;;7.90;99.90;;;;;;5055981;28;19935;-55
2023/03/01 11:19:01;;;;;;;19.45;12.93;;;8.00;99.90;;;;;;5056940;28;20037;-55
2023/03/01 11:21:30;;;;;;;18.02;13.10;;;8.20;99.90;;;;;;5057170;28;20071;-55
2023/03/01 11:23:59;;;;;;;19.67;13.20;;;8.10;99.90;;;;;;5057773;28;20049;-55
2023/03/01 11:26:25;;;;;;;19.40;14.40;;;;;;;;;;5056663;28;20055;-55
2023/03/01 11:28:57;;;;;;;17.77;12.57;;;8.40;99.90;;;;;;5055856;28;20139;-54
2023/03/01 11:31:24;;;;;;;20.93;14.67;;;8.50;99.90;;;;;;5056925;28;20045;-55
2023/03/01 11:33:57;;;;;;;18.58;13.68;;;8.40;99.90;;;;;;5056459;28;20385;-54
2023/03/01 11:36:29;;;;;;;21.88;13.82;;;8.40;99.90;;;;;;5056507;28;20057;-55
2023/03/01 11:38:57;;;;;;;16.85;13.27;;;8.30;99.90;;;;;;5056908;28;20086;-55
2023/03/01 11:41:36;;;;;;;19.08;13.00;;;7.90;99.90;;;;;;5056339;28;20056;-55
2023/03/01 11:44:11;;;;;;;16.65;11.63;;;8.00;99.90;;;;;;5056330;28;20539;-55
2023/03/01 11:46:58;;;;;;;16.88;11.88;;;7.90;99.90;;;;;;5056673;28;20044;-55
2023/03/01 11:49:39;;;;;;;14.55;10.70;;;7.90;99.90;;;;;;5056102;28;20128;-55
2023/03/01 11:52:05;;;;;;;19.90;12.68;;;;;;;;;;5054639;28;20055;-54
2023/03/01 11:54:57;;;;;;;19.17;12.70;;;7.80;99.90;;;;;;5056935;28;20048;-54
2023/03/01 11:57:47;;;;;;;15.88;11.60;;;8.00;99.90;;;;;;5054738;28;20045;-55
2023/03/01 12:00:35;;;;;;;20.75;13.55;;;7.90;99.90;;;;;;5054505;28;20043;-54
2023/03/01 12:03:25;;;;;;;19.38;12.77;;;7.90;99.90;;;;;;5055288;28;20052;-53
2023/03/01 12:06:16;;;;;;;17.17;12.18;;;8.00;99.90;;;;;;5056356;28;20036;-54
2023/03/01 12:08:56;;;;;;;19.23;9.48;;;8.00;99.90;;;;;;5055854;28;20409;-54
2023/03/01 12:12:06;;;;;;;16.63;10.75;;;8.00;99.90;;;;;;5055068;28;20566;-55
2023/03/01 12:14:50;;;;;;;17.25;10.85;;;8.10;99.90;;;;;;5025260;28;20300;-55
2023/03/01 12:17:36;;;;;;;15.27;11.85;;;7.90;99.90;;;;;;5054741;28;20609;-54
2023/03/01 12:20:29;;;;;;;14.18;9.35;;;8.00;99.90;;;;;;5056963;28;20075;-54
2023/03/01 12:23:00;;;;;;;16.67;10.77;;;7.90;99.90;;;;;;5055204;28;20117;-54
2023/03/01 12:25:32;;;;;;;15.13;11.18;;;8.00;99.90;;;;;;5056314;28;20393;-55
2023/03/01 12:28:28;;;;;;;16.45;11.43;;;8.00;99.90;;;;;;5055019;28;20068;-53
2023/03/01 12:30:54;;;;;;;14.90;10.48;;;8.00;99.90;;;;;;5056008;28;20052;-54
2023/03/01 12:33:51;;;;;;;14.85;10.75;;;7.90;99.90;;;;;;5053446;28;20493;-55
2023/03/01 12:36:38;;;;;;;14.00;10.55;;;8.00;99.90;;;;;;5055730;28;20040;-52
2023/03/01 12:39:28;;;;;;;15.82;10.32;;;7.70;99.90;;;;;;5056427;28;20040;-55
2023/03/01 12:42:23;;;;;;;14.77;10.57;;;7.70;99.90;;;;;;5054873;28;20465;-53
2023/03/01 12:45:12;;;;;;;14.48;10.05;;;7.80;99.90;;;;;;5054736;28;20036;-54
2023/03/01 12:47:39;;;;;;;13.82;10.25;;;;;;;;;;5026398;28;20128;-54
2023/03/01 12:50:23;;;;;;;14.45;9.93;;;7.70;99.90;;;;;;5054637;28;20087;-55
2023/03/01 12:52:55;;;;;;;14.57;10.65;;;7.80;99.90;;;;;;5053903;28;20066;-54
2023/03/01 12:55:28;;;;;;;16.40;10.82;;;7.70;99.90;;;;;;5055571;28;20040;-53
2023/03/01 12:58:06;;;;;;;;;;;7.80;99.90;;;;;;5055167;28;20044;-54
2023/03/01 13:00:59;;;;;;;16.00;10.55;;;7.80;99.90;;;;;;5055759;28;19931;-53
2023/03/01 13:03:25;;;;;;;15.93;10.60;;;;;;;;;;5052408;28;21845;-54
2023/03/01 13:05:51;;;;;;;15.95;9.85;;;;;;;;;;5055609;28;20051;-54
2023/03/01 13:08:32;;;;;;;17.92;10.48;;;7.90;99.90;;;;;;5054882;28;20097;-54
2023/03/01 13:11:03;;;;;;;14.32;10.93;;;7.80;99.90;;;;;;5054346;28;20044;-53
2023/03/01 13:13:30;;;;;;;13.52;11.07;;;7.60;99.90;;;;;;5054915;28;20119;-54
2023/03/01 13:15:57;;;;;;;15.35;10.80;;;7.60;99.90;;;;;;5055642;28;20075;-55
2023/03/01 13:18:24;;;;;;;15.73;11.00;;;7.70;99.90;;;;;;5053338;28;20056;-54
2023/03/01 13:20:52;;;;;;;13.20;10.32;;;7.90;99.90;;;;;;5051727;28;20044;-51
2023/03/01 13:23:21;;;;;;;16.70;11.07;;;7.80;99.90;;;;;;5046732;28;20068;-54
2023/03/01 13:26:28;;;;;;;15.52;11.20;;;7.70;99.90;;;;;;5049547;28;20561;-55
2023/03/01 13:28:56;;;;;;;17.20;9.95;;;7.80;99.90;;;;;;5035105;28;20068;-54
2023/03/01 13:31:25;;;;;;;16.35;11.10;;;7.80;99.90;;;;;;5054119;28;20317;-55
2023/03/01 13:34:00;;;;;;;16.02;11.20;;;7.60;99.90;;;;;;5053230;28;20052;-55
2023/03/01 13:36:28;;;;;;;18.30;11.32;;;7.70;99.90;;;;;;5053123;28;20221;-52
2023/03/01 13:38:55;;;;;;;16.42;12.05;;;;;;;;;;5053423;28;20037;-54
2023/03/01 13:41:39;;;;;;;14.68;10.27;;;7.90;99.90;;;;;;5054254;28;20044;-55
2023/03/01 13:44:26;;;;;;;15.77;10.90;;;8.00;99.90;;;;;;5036480;28;20040;-53
2023/03/01 13:46:56;;;;;;;14.30;10.45;;;7.80;99.90;;;;;;5054729;28;22747;-53
2023/03/01 13:49:26;;;;;;;15.13;10.52;;;7.90;99.90;;;;;;5053632;28;20142;-55
2023/03/01 13:51:52;;;;;;;16.52;9.98;;;;;;;;;;5054123;28;20048;-55
2023/03/01 13:54:32;;;;;;;12.93;9.48;;;7.50;99.90;;;;;;5054645;28;20064;-55